sensor_id;sensor_type;location;lat;lon;timestamp;P1;durP1;ratioP1;P2;durP2;ratioP2
29548;SDS011;16487;53.094;8.800;2022-07-05T00:01:24;5.03;;;3.00;;
29548;SDS011;16487;53.094;8.800;2022-07-05T00:03:53;5.13;;;3.90;;
29548;SDS011;16487;53.094;8.800;2022-07-05T00:06:22;3.80;;;3.47;;
29548;SDS011;16487;53.094;8.800;2022-07-05T00:08:50;4.57;;;3.20;;
29548;SDS011;16487;53.094;8.800;2022-07-05T00:11:22;4.10;;;3.33;;
29548;SDS011;16487;53.094;8.800;2022-07-05T00:13:51;3.50;;;3.20;;
29548;SDS011;16487;53.094;8.800;2022-07-05T00:16:20;3.83;;;3.43;;
29548;SDS011;16487;53.094;8.800;2022-07-05T00:18:48;4.83;;;3.57;;
29548;SDS011;16487;53.094;8.800;2022-07-05T00:21:17;5.47;;;3.17;;
29548;SDS011;16487;53.094;8.800;2022-07-05T00:23:46;4.97;;;3.63;;
29548;SDS011;16487;53.094;8.800;2022-07-05T00:26:16;3.60;;;3.07;;
29548;SDS011;16487;53.094;8.800;2022-07-05T00:28:47;5.37;;;3.10;;
29548;SDS011;16487;53.094;8.800;2022-07-05T00:31:16;7.10;;;3.50;;
29548;SDS011;16487;53.094;8.800;2022-07-05T00:33:46;3.90;;;3.50;;
29548;SDS011;16487;53.094;8.800;2022-07-05T00:36:15;6.40;;;3.37;;
29548;SDS011;16487;53.094;8.800;2022-07-05T00:38:44;3.73;;;3.20;;
29548;SDS011;16487;53.094;8.800;2022-07-05T00:41:13;5.97;;;5.37;;
29548;SDS011;16487;53.094;8.800;2022-07-05T00:43:52;6.27;;;4.43;;
29548;SDS011;16487;53.094;8.800;2022-07-05T00:46:22;4.70;;;3.93;;
29548;SDS011;16487;53.094;8.800;2022-07-05T00:48:51;4.47;;;3.70;;
29548;SDS011;16487;53.094;8.800;2022-07-05T00:51:20;4.90;;;3.43;;
29548;SDS011;16487;53.094;8.800;2022-07-05T00:53:50;4.33;;;4.00;;
29548;SDS011;16487;53.094;8.800;2022-07-05T00:56:19;6.57;;;3.83;;
29548;SDS011;16487;53.094;8.800;2022-07-05T00:58:48;4.60;;;4.20;;
29548;SDS011;16487;53.094;8.800;2022-07-05T01:01:19;4.43;;;4.13;;
29548;SDS011;16487;53.094;8.800;2022-07-05T01:03:55;6.77;;;4.50;;
29548;SDS011;16487;53.094;8.800;2022-07-05T01:06:24;4.73;;;4.33;;
29548;SDS011;16487;53.094;8.800;2022-07-05T01:08:54;6.53;;;5.50;;
29548;SDS011;16487;53.094;8.800;2022-07-05T01:11:22;5.27;;;4.80;;
29548;SDS011;16487;53.094;8.800;2022-07-05T01:13:52;5.80;;;5.30;;
29548;SDS011;16487;53.094;8.800;2022-07-05T01:16:22;7.50;;;5.90;;
29548;SDS011;16487;53.094;8.800;2022-07-05T01:18:51;5.80;;;4.97;;
29548;SDS011;16487;53.094;8.800;2022-07-05T01:21:23;4.87;;;4.47;;
29548;SDS011;16487;53.094;8.800;2022-07-05T01:24:02;5.00;;;4.60;;
29548;SDS011;16487;53.094;8.800;2022-07-05T01:26:31;5.20;;;4.70;;
29548;SDS011;16487;53.094;8.800;2022-07-05T01:29:00;7.53;;;5.07;;
29548;SDS011;16487;53.094;8.800;2022-07-05T01:31:29;4.60;;;4.23;;
29548;SDS011;16487;53.094;8.800;2022-07-05T01:34:00;5.50;;;5.00;;
29548;SDS011;16487;53.094;8.800;2022-07-05T01:36:30;5.93;;;5.43;;
29548;SDS011;16487;53.094;8.800;2022-07-05T01:39:02;6.43;;;5.40;;
29548;SDS011;16487;53.094;8.800;2022-07-05T01:41:32;5.27;;;4.70;;
29548;SDS011;16487;53.094;8.800;2022-07-05T01:44:02;5.87;;;5.27;;
29548;SDS011;16487;53.094;8.800;2022-07-05T01:46:32;11.13;;;5.80;;
29548;SDS011;16487;53.094;8.800;2022-07-05T01:49:05;7.03;;;6.33;;
29548;SDS011;16487;53.094;8.800;2022-07-05T01:51:39;9.70;;;6.10;;
29548;SDS011;16487;53.094;8.800;2022-07-05T01:54:19;5.93;;;5.33;;
29548;SDS011;16487;53.094;8.800;2022-07-05T01:56:48;6.30;;;5.40;;
29548;SDS011;16487;53.094;8.800;2022-07-05T01:59:17;6.00;;;5.50;;
29548;SDS011;16487;53.094;8.800;2022-07-05T02:01:46;7.60;;;5.50;;
29548;SDS011;16487;53.094;8.800;2022-07-05T02:04:15;6.57;;;6.07;;
29548;SDS011;16487;53.094;8.800;2022-07-05T02:06:46;6.17;;;5.67;;
29548;SDS011;16487;53.094;8.800;2022-07-05T02:09:15;5.87;;;5.40;;
29548;SDS011;16487;53.094;8.800;2022-07-05T02:11:45;7.80;;;6.87;;
29548;SDS011;16487;53.094;8.800;2022-07-05T02:14:14;6.47;;;5.87;;
29548;SDS011;16487;53.094;8.800;2022-07-05T02:16:44;7.27;;;6.67;;
29548;SDS011;16487;53.094;8.800;2022-07-05T02:19:17;6.33;;;5.77;;
29548;SDS011;16487;53.094;8.800;2022-07-05T02:21:46;9.53;;;6.00;;
29548;SDS011;16487;53.094;8.800;2022-07-05T02:24:19;6.30;;;5.80;;
29548;SDS011;16487;53.094;8.800;2022-07-05T02:27:01;8.77;;;7.07;;
29548;SDS011;16487;53.094;8.800;2022-07-05T02:29:35;6.80;;;6.20;;
29548;SDS011;16487;53.094;8.800;2022-07-05T02:32:05;6.60;;;6.10;;
29548;SDS011;16487;53.094;8.800;2022-07-05T02:34:35;7.33;;;6.53;;
29548;SDS011;16487;53.094;8.800;2022-07-05T02:37:04;7.87;;;7.00;;
29548;SDS011;16487;53.094;8.800;2022-07-05T02:39:34;7.37;;;6.63;;
29548;SDS011;16487;53.094;8.800;2022-07-05T02:42:06;9.70;;;6.83;;
29548;SDS011;16487;53.094;8.800;2022-07-05T02:44:35;7.90;;;7.10;;
29548;SDS011;16487;53.094;8.800;2022-07-05T02:47:06;7.80;;;7.00;;
29548;SDS011;16487;53.094;8.800;2022-07-05T02:49:35;7.97;;;7.10;;
29548;SDS011;16487;53.094;8.800;2022-07-05T02:52:06;7.63;;;7.00;;
29548;SDS011;16487;53.094;8.800;2022-07-05T02:54:36;7.43;;;5.90;;
29548;SDS011;16487;53.094;8.800;2022-07-05T02:57:09;7.60;;;7.00;;
29548;SDS011;16487;53.094;8.800;2022-07-05T02:59:38;8.57;;;7.77;;
29548;SDS011;16487;53.094;8.800;2022-07-05T03:02:07;7.23;;;6.53;;
29548;SDS011;16487;53.094;8.800;2022-07-05T03:04:39;7.50;;;6.90;;
29548;SDS011;16487;53.094;8.800;2022-07-05T03:07:08;7.03;;;6.33;;
29548;SDS011;16487;53.094;8.800;2022-07-05T03:09:37;6.67;;;6.07;;
29548;SDS011;16487;53.094;8.800;2022-07-05T03:12:06;7.37;;;6.67;;
29548;SDS011;16487;53.094;8.800;2022-07-05T03:14:38;7.67;;;6.97;;
29548;SDS011;16487;53.094;8.800;2022-07-05T03:17:08;8.10;;;7.37;;
29548;SDS011;16487;53.094;8.800;2022-07-05T03:19:36;8.37;;;7.67;;
29548;SDS011;16487;53.094;8.800;2022-07-05T03:22:07;8.03;;;7.23;;
29548;SDS011;16487;53.094;8.800;2022-07-05T03:24:38;9.00;;;7.60;;
29548;SDS011;16487;53.094;8.800;2022-07-05T03:27:07;7.20;;;6.60;;
29548;SDS011;16487;53.094;8.800;2022-07-05T03:29:43;8.80;;;7.53;;
29548;SDS011;16487;53.094;8.800;2022-07-05T03:32:12;7.30;;;6.70;;
29548;SDS011;16487;53.094;8.800;2022-07-05T03:34:41;7.50;;;6.80;;
29548;SDS011;16487;53.094;8.800;2022-07-05T03:37:11;8.40;;;7.60;;
29548;SDS011;16487;53.094;8.800;2022-07-05T03:39:40;7.70;;;7.00;;
29548;SDS011;16487;53.094;8.800;2022-07-05T03:42:09;8.07;;;6.90;;
29548;SDS011;16487;53.094;8.800;2022-07-05T03:44:39;7.10;;;6.47;;
29548;SDS011;16487;53.094;8.800;2022-07-05T03:47:08;9.70;;;7.20;;
29548;SDS011;16487;53.094;8.800;2022-07-05T03:49:38;7.80;;;7.10;;
29548;SDS011;16487;53.094;8.800;2022-07-05T03:52:07;8.50;;;6.50;;
29548;SDS011;16487;53.094;8.800;2022-07-05T03:54:37;8.30;;;7.57;;
29548;SDS011;16487;53.094;8.800;2022-07-05T03:57:06;9.40;;;7.67;;
29548;SDS011;16487;53.094;8.800;2022-07-05T03:59:41;8.07;;;6.60;;
29548;SDS011;16487;53.094;8.800;2022-07-05T04:02:12;13.43;;;7.40;;
29548;SDS011;16487;53.094;8.800;2022-07-05T04:04:44;8.00;;;7.20;;
29548;SDS011;16487;53.094;8.800;2022-07-05T04:07:14;8.30;;;7.60;;
29548;SDS011;16487;53.094;8.800;2022-07-05T04:09:43;7.50;;;6.80;;
29548;SDS011;16487;53.094;8.800;2022-07-05T04:12:13;8.13;;;7.53;;
29548;SDS011;16487;53.094;8.800;2022-07-05T04:14:45;7.53;;;6.73;;
29548;SDS011;16487;53.094;8.800;2022-07-05T04:17:16;8.57;;;7.33;;
29548;SDS011;16487;53.094;8.800;2022-07-05T04:19:46;7.60;;;6.90;;
29548;SDS011;16487;53.094;8.800;2022-07-05T04:22:16;7.20;;;6.60;;
29548;SDS011;16487;53.094;8.800;2022-07-05T04:24:44;8.73;;;7.93;;
29548;SDS011;16487;53.094;8.800;2022-07-05T04:27:30;7.03;;;6.30;;
29548;SDS011;16487;53.094;8.800;2022-07-05T04:29:59;7.53;;;6.93;;
29548;SDS011;16487;53.094;8.800;2022-07-05T04:32:30;7.23;;;6.50;;
29548;SDS011;16487;53.094;8.800;2022-07-05T04:34:59;7.20;;;6.50;;
29548;SDS011;16487;53.094;8.800;2022-07-05T04:37:28;7.40;;;6.70;;
29548;SDS011;16487;53.094;8.800;2022-07-05T04:39:57;7.30;;;6.60;;
29548;SDS011;16487;53.094;8.800;2022-07-05T04:42:26;7.23;;;6.53;;
29548;SDS011;16487;53.094;8.800;2022-07-05T04:44:55;6.20;;;5.57;;
29548;SDS011;16487;53.094;8.800;2022-07-05T04:47:24;7.07;;;6.37;;
29548;SDS011;16487;53.094;8.800;2022-07-05T04:49:57;7.57;;;6.23;;
29548;SDS011;16487;53.094;8.800;2022-07-05T04:52:27;6.30;;;5.70;;
29548;SDS011;16487;53.094;8.800;2022-07-05T04:54:58;6.87;;;6.23;;
29548;SDS011;16487;53.094;8.800;2022-07-05T04:57:37;7.00;;;6.03;;
29548;SDS011;16487;53.094;8.800;2022-07-05T05:00:07;6.03;;;5.53;;
29548;SDS011;16487;53.094;8.800;2022-07-05T05:02:39;10.30;;;8.27;;
29548;SDS011;16487;53.094;8.800;2022-07-05T05:05:11;5.30;;;4.80;;
29548;SDS011;16487;53.094;8.800;2022-07-05T05:07:41;7.00;;;5.43;;
29548;SDS011;16487;53.094;8.800;2022-07-05T05:10:10;6.70;;;6.10;;
29548;SDS011;16487;53.094;8.800;2022-07-05T05:12:40;11.30;;;5.53;;
29548;SDS011;16487;53.094;8.800;2022-07-05T05:15:08;5.30;;;4.90;;
29548;SDS011;16487;53.094;8.800;2022-07-05T05:17:38;6.77;;;6.17;;
29548;SDS011;16487;53.094;8.800;2022-07-05T05:20:11;6.30;;;5.70;;
29548;SDS011;16487;53.094;8.800;2022-07-05T05:22:44;5.90;;;5.30;;
29548;SDS011;16487;53.094;8.800;2022-07-05T05:25:14;5.53;;;5.03;;
29548;SDS011;16487;53.094;8.800;2022-07-05T05:27:49;5.77;;;5.37;;
29548;SDS011;16487;53.094;8.800;2022-07-05T05:30:18;7.73;;;5.13;;
29548;SDS011;16487;53.094;8.800;2022-07-05T05:32:48;6.20;;;5.33;;
29548;SDS011;16487;53.094;8.800;2022-07-05T05:35:19;7.70;;;4.73;;
29548;SDS011;16487;53.094;8.800;2022-07-05T05:37:51;4.37;;;4.07;;
29548;SDS011;16487;53.094;8.800;2022-07-05T05:40:22;5.97;;;3.90;;
29548;SDS011;16487;53.094;8.800;2022-07-05T05:43:05;4.50;;;4.10;;
29548;SDS011;16487;53.094;8.800;2022-07-05T05:45:34;4.70;;;4.30;;
29548;SDS011;16487;53.094;8.800;2022-07-05T05:48:07;4.93;;;4.47;;
29548;SDS011;16487;53.094;8.800;2022-07-05T05:50:37;4.80;;;4.30;;
29548;SDS011;16487;53.094;8.800;2022-07-05T05:53:07;4.03;;;3.73;;
29548;SDS011;16487;53.094;8.800;2022-07-05T05:55:39;3.90;;;3.60;;
29548;SDS011;16487;53.094;8.800;2022-07-05T05:58:10;4.50;;;4.10;;
29548;SDS011;16487;53.094;8.800;2022-07-05T06:00:40;5.83;;;3.47;;
29548;SDS011;16487;53.094;8.800;2022-07-05T06:03:09;4.87;;;4.30;;
29548;SDS011;16487;53.094;8.800;2022-07-05T06:05:42;5.83;;;4.07;;
29548;SDS011;16487;53.094;8.800;2022-07-05T06:08:12;4.20;;;3.73;;
29548;SDS011;16487;53.094;8.800;2022-07-05T06:10:46;3.27;;;3.07;;
29548;SDS011;16487;53.094;8.800;2022-07-05T06:13:23;2.83;;;2.63;;
29548;SDS011;16487;53.094;8.800;2022-07-05T06:15:52;3.20;;;2.97;;
29548;SDS011;16487;53.094;8.800;2022-07-05T06:18:22;3.60;;;3.03;;
29548;SDS011;16487;53.094;8.800;2022-07-05T06:20:53;5.10;;;2.70;;
29548;SDS011;16487;53.094;8.800;2022-07-05T06:23:22;3.83;;;2.67;;
29548;SDS011;16487;53.094;8.800;2022-07-05T06:25:51;2.60;;;2.00;;
29548;SDS011;16487;53.094;8.800;2022-07-05T06:28:20;2.63;;;2.43;;
29548;SDS011;16487;53.094;8.800;2022-07-05T06:30:49;2.50;;;2.30;;
29548;SDS011;16487;53.094;8.800;2022-07-05T06:33:26;4.70;;;2.50;;
29548;SDS011;16487;53.094;8.800;2022-07-05T06:35:57;2.37;;;2.17;;
29548;SDS011;16487;53.094;8.800;2022-07-05T06:38:26;3.00;;;1.80;;
29548;SDS011;16487;53.094;8.800;2022-07-05T06:40:54;2.73;;;1.83;;
29548;SDS011;16487;53.094;8.800;2022-07-05T06:43:24;2.10;;;1.90;;
29548;SDS011;16487;53.094;8.800;2022-07-05T06:45:55;2.70;;;2.00;;
29548;SDS011;16487;53.094;8.800;2022-07-05T06:48:24;2.03;;;1.93;;
29548;SDS011;16487;53.094;8.800;2022-07-05T06:50:53;2.83;;;1.87;;
29548;SDS011;16487;53.094;8.800;2022-07-05T06:53:24;1.80;;;1.70;;
29548;SDS011;16487;53.094;8.800;2022-07-05T06:55:56;3.77;;;1.90;;
29548;SDS011;16487;53.094;8.800;2022-07-05T06:58:24;3.73;;;2.13;;
29548;SDS011;16487;53.094;8.800;2022-07-05T07:00:57;2.60;;;1.93;;
29548;SDS011;16487;53.094;8.800;2022-07-05T07:03:46;4.83;;;2.03;;
29548;SDS011;16487;53.094;8.800;2022-07-05T07:06:35;2.13;;;1.77;;
29548;SDS011;16487;53.094;8.800;2022-07-05T07:09:05;2.67;;;2.47;;
29548;SDS011;16487;53.094;8.800;2022-07-05T07:11:51;2.63;;;2.07;;
29548;SDS011;16487;53.094;8.800;2022-07-05T07:14:26;2.50;;;1.60;;
29548;SDS011;16487;53.094;8.800;2022-07-05T07:16:56;1.67;;;1.57;;
29548;SDS011;16487;53.094;8.800;2022-07-05T07:19:25;2.10;;;1.93;;
29548;SDS011;16487;53.094;8.800;2022-07-05T07:21:55;2.20;;;1.70;;
29548;SDS011;16487;53.094;8.800;2022-07-05T07:24:25;2.30;;;1.70;;
29548;SDS011;16487;53.094;8.800;2022-07-05T07:26:55;2.70;;;1.73;;
29548;SDS011;16487;53.094;8.800;2022-07-05T07:29:35;2.93;;;1.90;;
29548;SDS011;16487;53.094;8.800;2022-07-05T07:32:06;1.53;;;1.43;;
29548;SDS011;16487;53.094;8.800;2022-07-05T07:34:37;2.03;;;1.50;;
29548;SDS011;16487;53.094;8.800;2022-07-05T07:37:06;2.50;;;1.90;;
29548;SDS011;16487;53.094;8.800;2022-07-05T07:39:41;2.70;;;1.90;;
29548;SDS011;16487;53.094;8.800;2022-07-05T07:42:10;4.37;;;1.33;;
29548;SDS011;16487;53.094;8.800;2022-07-05T07:44:39;2.13;;;1.50;;
29548;SDS011;16487;53.094;8.800;2022-07-05T07:47:09;3.17;;;1.63;;
29548;SDS011;16487;53.094;8.800;2022-07-05T07:49:41;1.53;;;1.43;;
29548;SDS011;16487;53.094;8.800;2022-07-05T07:52:13;4.63;;;1.60;;
29548;SDS011;16487;53.094;8.800;2022-07-05T07:54:43;2.70;;;1.40;;
29548;SDS011;16487;53.094;8.800;2022-07-05T07:57:17;2.40;;;1.50;;
29548;SDS011;16487;53.094;8.800;2022-07-05T07:59:49;2.67;;;1.60;;
29548;SDS011;16487;53.094;8.800;2022-07-05T08:02:18;1.57;;;1.30;;
29548;SDS011;16487;53.094;8.800;2022-07-05T08:04:48;4.07;;;1.67;;
29548;SDS011;16487;53.094;8.800;2022-07-05T08:07:18;1.87;;;1.30;;
29548;SDS011;16487;53.094;8.800;2022-07-05T08:09:48;1.60;;;1.50;;
29548;SDS011;16487;53.094;8.800;2022-07-05T08:12:17;1.53;;;1.43;;
29548;SDS011;16487;53.094;8.800;2022-07-05T08:14:46;2.50;;;1.40;;
29548;SDS011;16487;53.094;8.800;2022-07-05T08:17:15;1.57;;;1.47;;
29548;SDS011;16487;53.094;8.800;2022-07-05T08:19:44;3.80;;;1.23;;
29548;SDS011;16487;53.094;8.800;2022-07-05T08:22:40;2.33;;;1.50;;
29548;SDS011;16487;53.094;8.800;2022-07-05T08:25:10;1.20;;;1.10;;
29548;SDS011;16487;53.094;8.800;2022-07-05T08:27:41;1.40;;;1.30;;
29548;SDS011;16487;53.094;8.800;2022-07-05T08:30:10;2.30;;;1.10;;
29548;SDS011;16487;53.094;8.800;2022-07-05T08:32:39;3.53;;;0.90;;
29548;SDS011;16487;53.094;8.800;2022-07-05T08:35:08;2.50;;;1.27;;
29548;SDS011;16487;53.094;8.800;2022-07-05T08:37:37;1.93;;;1.50;;
29548;SDS011;16487;53.094;8.800;2022-07-05T08:40:17;2.40;;;1.10;;
29548;SDS011;16487;53.094;8.800;2022-07-05T08:42:49;1.63;;;0.97;;
29548;SDS011;16487;53.094;8.800;2022-07-05T08:45:23;2.07;;;0.77;;
29548;SDS011;16487;53.094;8.800;2022-07-05T08:47:54;2.73;;;0.90;;
29548;SDS011;16487;53.094;8.800;2022-07-05T08:50:26;1.80;;;1.40;;
29548;SDS011;16487;53.094;8.800;2022-07-05T08:52:56;1.20;;;1.10;;
29548;SDS011;16487;53.094;8.800;2022-07-05T08:55:28;1.13;;;0.97;;
29548;SDS011;16487;53.094;8.800;2022-07-05T08:57:56;2.30;;;1.00;;
29548;SDS011;16487;53.094;8.800;2022-07-05T09:00:28;1.00;;;0.87;;
29548;SDS011;16487;53.094;8.800;2022-07-05T09:02:57;1.47;;;1.20;;
29548;SDS011;16487;53.094;8.800;2022-07-05T09:05:28;1.60;;;1.00;;
29548;SDS011;16487;53.094;8.800;2022-07-05T09:08:00;1.00;;;1.00;;
29548;SDS011;16487;53.094;8.800;2022-07-05T09:10:38;2.67;;;0.97;;
29548;SDS011;16487;53.094;8.800;2022-07-05T09:13:22;1.70;;;0.80;;
29548;SDS011;16487;53.094;8.800;2022-07-05T09:15:57;5.13;;;0.90;;
29548;SDS011;16487;53.094;8.800;2022-07-05T09:18:38;1.57;;;0.90;;
29548;SDS011;16487;53.094;8.800;2022-07-05T09:21:13;1.10;;;1.10;;
29548;SDS011;16487;53.094;8.800;2022-07-05T09:23:43;2.33;;;1.20;;
29548;SDS011;16487;53.094;8.800;2022-07-05T09:26:14;0.70;;;0.70;;
29548;SDS011;16487;53.094;8.800;2022-07-05T09:28:56;1.00;;;0.80;;
29548;SDS011;16487;53.094;8.800;2022-07-05T09:31:45;0.87;;;0.80;;
29548;SDS011;16487;53.094;8.800;2022-07-05T09:34:16;1.27;;;1.17;;
29548;SDS011;16487;53.094;8.800;2022-07-05T09:36:49;1.67;;;1.23;;
29548;SDS011;16487;53.094;8.800;2022-07-05T09:39:36;2.03;;;1.30;;
29548;SDS011;16487;53.094;8.800;2022-07-05T09:42:20;5.00;;;1.13;;
29548;SDS011;16487;53.094;8.800;2022-07-05T09:44:59;1.17;;;1.07;;
29548;SDS011;16487;53.094;8.800;2022-07-05T09:47:28;1.60;;;1.20;;
29548;SDS011;16487;53.094;8.800;2022-07-05T09:49:58;2.60;;;1.10;;
29548;SDS011;16487;53.094;8.800;2022-07-05T09:52:37;1.90;;;1.07;;
29548;SDS011;16487;53.094;8.800;2022-07-05T09:55:08;1.93;;;1.10;;
29548;SDS011;16487;53.094;8.800;2022-07-05T09:57:40;1.20;;;1.10;;
29548;SDS011;16487;53.094;8.800;2022-07-05T10:00:10;2.43;;;0.90;;
29548;SDS011;16487;53.094;8.800;2022-07-05T10:02:42;1.20;;;1.10;;
29548;SDS011;16487;53.094;8.800;2022-07-05T10:05:12;2.60;;;1.20;;
29548;SDS011;16487;53.094;8.800;2022-07-05T10:07:46;1.20;;;1.10;;
29548;SDS011;16487;53.094;8.800;2022-07-05T10:10:16;1.20;;;1.10;;
29548;SDS011;16487;53.094;8.800;2022-07-05T10:12:47;1.53;;;1.30;;
29548;SDS011;16487;53.094;8.800;2022-07-05T10:15:19;1.30;;;1.10;;
29548;SDS011;16487;53.094;8.800;2022-07-05T10:17:50;2.23;;;1.47;;
29548;SDS011;16487;53.094;8.800;2022-07-05T10:20:24;1.50;;;1.10;;
29548;SDS011;16487;53.094;8.800;2022-07-05T10:22:57;1.40;;;1.20;;
29548;SDS011;16487;53.094;8.800;2022-07-05T10:25:33;2.00;;;1.20;;
29548;SDS011;16487;53.094;8.800;2022-07-05T10:28:05;3.00;;;1.50;;
29548;SDS011;16487;53.094;8.800;2022-07-05T10:30:35;1.93;;;1.43;;
29548;SDS011;16487;53.094;8.800;2022-07-05T10:33:06;2.73;;;1.13;;
29548;SDS011;16487;53.094;8.800;2022-07-05T10:35:36;1.50;;;1.40;;
29548;SDS011;16487;53.094;8.800;2022-07-05T10:38:05;1.73;;;1.13;;
29548;SDS011;16487;53.094;8.800;2022-07-05T10:40:38;2.07;;;1.27;;
29548;SDS011;16487;53.094;8.800;2022-07-05T10:43:10;2.83;;;1.37;;
29548;SDS011;16487;53.094;8.800;2022-07-05T10:45:46;2.43;;;1.30;;
29548;SDS011;16487;53.094;8.800;2022-07-05T10:48:17;2.33;;;1.37;;
29548;SDS011;16487;53.094;8.800;2022-07-05T10:50:48;2.07;;;1.10;;
29548;SDS011;16487;53.094;8.800;2022-07-05T10:53:20;2.57;;;1.30;;
29548;SDS011;16487;53.094;8.800;2022-07-05T10:55:57;2.60;;;1.10;;
29548;SDS011;16487;53.094;8.800;2022-07-05T10:58:32;4.13;;;1.40;;
29548;SDS011;16487;53.094;8.800;2022-07-05T11:07:00;2.30;;;1.37;;
29548;SDS011;16487;53.094;8.800;2022-07-05T11:09:29;2.30;;;1.27;;
29548;SDS011;16487;53.094;8.800;2022-07-05T11:15:05;2.90;;;1.17;;
29548;SDS011;16487;53.094;8.800;2022-07-05T11:17:36;2.40;;;0.90;;
29548;SDS011;16487;53.094;8.800;2022-07-05T11:20:29;1.77;;;1.30;;
29548;SDS011;16487;53.094;8.800;2022-07-05T11:23:03;1.37;;;1.20;;
29548;SDS011;16487;53.094;8.800;2022-07-05T11:25:37;4.30;;;1.40;;
29548;SDS011;16487;53.094;8.800;2022-07-05T11:28:12;1.63;;;1.30;;
29548;SDS011;16487;53.094;8.800;2022-07-05T11:30:56;2.27;;;1.10;;
29548;SDS011;16487;53.094;8.800;2022-07-05T11:33:29;2.30;;;1.20;;
29548;SDS011;16487;53.094;8.800;2022-07-05T11:36:06;1.33;;;0.93;;
29548;SDS011;16487;53.094;8.800;2022-07-05T11:41:43;1.37;;;1.07;;
29548;SDS011;16487;53.094;8.800;2022-07-05T11:44:14;1.80;;;1.30;;
29548;SDS011;16487;53.094;8.800;2022-07-05T11:46:46;1.23;;;0.97;;
29548;SDS011;16487;53.094;8.800;2022-07-05T11:49:20;2.10;;;1.20;;
29548;SDS011;16487;53.094;8.800;2022-07-05T11:51:54;2.20;;;1.20;;
29548;SDS011;16487;53.094;8.800;2022-07-05T11:54:27;1.80;;;1.47;;
29548;SDS011;16487;53.094;8.800;2022-07-05T11:56:58;1.50;;;1.40;;
29548;SDS011;16487;53.094;8.800;2022-07-05T11:59:34;2.23;;;1.40;;
29548;SDS011;16487;53.094;8.800;2022-07-05T12:02:10;2.03;;;1.47;;
29548;SDS011;16487;53.094;8.800;2022-07-05T12:04:39;1.70;;;1.33;;
29548;SDS011;16487;53.094;8.800;2022-07-05T12:07:08;1.97;;;1.20;;
29548;SDS011;16487;53.094;8.800;2022-07-05T12:09:42;1.10;;;1.00;;
29548;SDS011;16487;53.094;8.800;2022-07-05T12:12:29;1.60;;;1.10;;
29548;SDS011;16487;53.094;8.800;2022-07-05T12:15:12;2.00;;;1.60;;
29548;SDS011;16487;53.094;8.800;2022-07-05T12:17:44;2.03;;;1.30;;
29548;SDS011;16487;53.094;8.800;2022-07-05T12:20:23;2.20;;;1.30;;
29548;SDS011;16487;53.094;8.800;2022-07-05T12:22:54;1.43;;;1.00;;
29548;SDS011;16487;53.094;8.800;2022-07-05T12:25:23;2.00;;;1.27;;
29548;SDS011;16487;53.094;8.800;2022-07-05T12:27:54;1.70;;;1.40;;
29548;SDS011;16487;53.094;8.800;2022-07-05T12:30:27;2.13;;;1.40;;
29548;SDS011;16487;53.094;8.800;2022-07-05T12:32:59;1.80;;;1.40;;
29548;SDS011;16487;53.094;8.800;2022-07-05T12:35:34;1.40;;;1.30;;
29548;SDS011;16487;53.094;8.800;2022-07-05T12:38:07;1.77;;;1.67;;
29548;SDS011;16487;53.094;8.800;2022-07-05T12:40:37;2.20;;;1.40;;
29548;SDS011;16487;53.094;8.800;2022-07-05T12:43:12;1.70;;;1.40;;
29548;SDS011;16487;53.094;8.800;2022-07-05T12:46:00;4.93;;;2.10;;
29548;SDS011;16487;53.094;8.800;2022-07-05T12:48:32;1.93;;;1.37;;
29548;SDS011;16487;53.094;8.800;2022-07-05T12:51:02;2.27;;;1.43;;
29548;SDS011;16487;53.094;8.800;2022-07-05T12:53:49;2.20;;;1.47;;
29548;SDS011;16487;53.094;8.800;2022-07-05T12:56:36;1.50;;;1.40;;
29548;SDS011;16487;53.094;8.800;2022-07-05T12:59:56;2.73;;;1.30;;
29548;SDS011;16487;53.094;8.800;2022-07-05T13:02:35;1.20;;;1.20;;
29548;SDS011;16487;53.094;8.800;2022-07-05T13:05:08;1.37;;;1.27;;
29548;SDS011;16487;53.094;8.800;2022-07-05T13:07:52;2.33;;;1.27;;
29548;SDS011;16487;53.094;8.800;2022-07-05T13:10:22;2.57;;;1.40;;
29548;SDS011;16487;53.094;8.800;2022-07-05T13:12:53;2.40;;;1.33;;
29548;SDS011;16487;53.094;8.800;2022-07-05T13:15:24;2.00;;;1.63;;
29548;SDS011;16487;53.094;8.800;2022-07-05T13:17:53;2.00;;;1.20;;
29548;SDS011;16487;53.094;8.800;2022-07-05T13:20:24;3.73;;;1.60;;
29548;SDS011;16487;53.094;8.800;2022-07-05T13:22:59;4.17;;;1.70;;
29548;SDS011;16487;53.094;8.800;2022-07-05T13:25:29;2.30;;;1.80;;
29548;SDS011;16487;53.094;8.800;2022-07-05T13:27:58;2.93;;;1.60;;
29548;SDS011;16487;53.094;8.800;2022-07-05T13:30:28;3.37;;;2.03;;
29548;SDS011;16487;53.094;8.800;2022-07-05T13:32:57;1.67;;;1.57;;
29548;SDS011;16487;53.094;8.800;2022-07-05T13:35:33;2.50;;;1.40;;
29548;SDS011;16487;53.094;8.800;2022-07-05T13:38:02;2.30;;;1.40;;
29548;SDS011;16487;53.094;8.800;2022-07-05T13:40:31;1.53;;;1.30;;
29548;SDS011;16487;53.094;8.800;2022-07-05T13:43:00;4.10;;;1.97;;
29548;SDS011;16487;53.094;8.800;2022-07-05T13:45:28;1.50;;;1.27;;
29548;SDS011;16487;53.094;8.800;2022-07-05T13:47:57;2.03;;;1.30;;
29548;SDS011;16487;53.094;8.800;2022-07-05T13:50:26;1.57;;;1.47;;
29548;SDS011;16487;53.094;8.800;2022-07-05T13:53:03;1.80;;;1.43;;
29548;SDS011;16487;53.094;8.800;2022-07-05T13:55:32;2.30;;;1.27;;
29548;SDS011;16487;53.094;8.800;2022-07-05T13:58:01;1.40;;;1.30;;
29548;SDS011;16487;53.094;8.800;2022-07-05T14:00:30;1.83;;;1.50;;
29548;SDS011;16487;53.094;8.800;2022-07-05T14:02:59;5.23;;;1.70;;
29548;SDS011;16487;53.094;8.800;2022-07-05T14:05:32;7.30;;;1.90;;
29548;SDS011;16487;53.094;8.800;2022-07-05T14:08:02;1.93;;;1.57;;
29548;SDS011;16487;53.094;8.800;2022-07-05T14:10:31;1.70;;;1.50;;
29548;SDS011;16487;53.094;8.800;2022-07-05T14:13:01;2.40;;;1.90;;
29548;SDS011;16487;53.094;8.800;2022-07-05T14:15:29;6.00;;;2.07;;
29548;SDS011;16487;53.094;8.800;2022-07-05T14:17:58;2.90;;;2.07;;
29548;SDS011;16487;53.094;8.800;2022-07-05T14:20:29;3.87;;;2.00;;
29548;SDS011;16487;53.094;8.800;2022-07-05T14:22:58;2.63;;;1.53;;
29548;SDS011;16487;53.094;8.800;2022-07-05T14:25:28;2.83;;;1.87;;
29548;SDS011;16487;53.094;8.800;2022-07-05T14:27:57;2.43;;;1.80;;
29548;SDS011;16487;53.094;8.800;2022-07-05T14:30:26;1.77;;;1.43;;
29548;SDS011;16487;53.094;8.800;2022-07-05T14:32:56;3.20;;;2.00;;
29548;SDS011;16487;53.094;8.800;2022-07-05T14:35:24;1.63;;;1.50;;
29548;SDS011;16487;53.094;8.800;2022-07-05T14:37:54;1.73;;;1.40;;
29548;SDS011;16487;53.094;8.800;2022-07-05T14:40:23;2.73;;;2.43;;
29548;SDS011;16487;53.094;8.800;2022-07-05T14:42:54;2.20;;;1.77;;
29548;SDS011;16487;53.094;8.800;2022-07-05T14:45:23;3.00;;;1.93;;
29548;SDS011;16487;53.094;8.800;2022-07-05T14:47:55;1.93;;;1.60;;
29548;SDS011;16487;53.094;8.800;2022-07-05T14:50:24;1.40;;;1.30;;
29548;SDS011;16487;53.094;8.800;2022-07-05T14:52:53;1.93;;;1.43;;
29548;SDS011;16487;53.094;8.800;2022-07-05T14:55:22;6.23;;;1.67;;
29548;SDS011;16487;53.094;8.800;2022-07-05T14:57:51;3.20;;;1.80;;
29548;SDS011;16487;53.094;8.800;2022-07-05T15:00:21;5.30;;;1.63;;
29548;SDS011;16487;53.094;8.800;2022-07-05T15:02:50;1.50;;;1.10;;
29548;SDS011;16487;53.094;8.800;2022-07-05T15:05:26;3.93;;;1.47;;
29548;SDS011;16487;53.094;8.800;2022-07-05T15:07:55;2.93;;;1.03;;
29548;SDS011;16487;53.094;8.800;2022-07-05T15:10:25;2.70;;;1.50;;
29548;SDS011;16487;53.094;8.800;2022-07-05T15:12:53;4.70;;;1.47;;
29548;SDS011;16487;53.094;8.800;2022-07-05T15:15:24;2.97;;;1.20;;
29548;SDS011;16487;53.094;8.800;2022-07-05T15:17:53;3.67;;;2.10;;
29548;SDS011;16487;53.094;8.800;2022-07-05T15:20:24;2.50;;;1.60;;
29548;SDS011;16487;53.094;8.800;2022-07-05T15:22:52;2.03;;;1.50;;
29548;SDS011;16487;53.094;8.800;2022-07-05T15:25:22;3.10;;;1.90;;
29548;SDS011;16487;53.094;8.800;2022-07-05T15:27:51;4.27;;;1.60;;